Time;durP1;ratioP1;P1;durP2;ratioP2;P2;SDS_P1;SDS_P2;PMS_P1;PMS_P2;Temp;Humidity;BMP_temperature;BMP_pressure;BME280_temperature;BME280_humidity;BME280_pressure;Samples;Min_cycle;Max_cycle;Signal;HPM_P1;HPM_P2
2020/12/20 00:00:10;;;;;;;63.22;39.97;;;;;;;16.50;31.66;95404.63;5076696;28;20055;-41
2020/12/20 00:02:37;;;;;;;58.33;39.10;;;;;;;16.30;32.12;95411.13;5073005;28;20048;-43
2020/12/20 00:05:06;;;;;;;66.05;40.15;;;;;;;16.02;33.05;95417.53;5081558;28;20378;-40
2020/12/20 00:07:33;;;;;;;67.35;43.42;;;;;;;14.40;35.39;95407.84;5090836;28;20048;-45
2020/12/20 00:10:03;;;;;;;68.00;39.80;;;;;;;14.08;36.99;95417.19;5084157;28;20059;-44
2020/12/20 00:12:30;;;;;;;65.28;38.78;;;;;;;15.27;34.43;95415.97;5082573;28;20044;-42
2020/12/20 00:14:57;;;;;;;56.42;36.47;;;;;;;16.03;33.05;95411.19;5076956;28;20044;-43
2020/12/20 00:17:30;;;;;;;78.32;43.92;;;;;;;16.55;32.41;95419.56;5091096;28;20048;-44
2020/12/20 00:20:04;;;;;;;64.72;39.55;;;;;;;16.84;31.98;95419.22;5093643;28;20056;-43
2020/12/20 00:22:31;;;;;;;67.80;40.35;;;;;;;17.22;31.06;95430.97;5093297;28;20056;-43
2020/12/20 00:24:58;;;;;;;65.75;39.55;;;;;;;17.81;30.01;95421.03;5091394;28;20040;-43
2020/12/20 00:27:27;;;;;;;74.60;42.95;;;;;;;17.34;30.95;95429.63;5073304;28;20051;-43
2020/12/20 00:29:54;;;;;;;67.05;40.53;;;;;;;17.79;30.15;95428.50;5073389;28;20044;-52
2020/12/20 00:32:24;;;;;;;69.82;41.88;;;;;;;17.69;30.14;95426.09;5072949;28;20399;-48
2020/12/20 00:34:51;;;;;;;66.75;40.33;;;;;;;17.57;30.37;95423.22;5074190;28;20040;-45
2020/12/20 00:37:18;;;;;;;67.43;40.70;;;;;;;17.86;29.97;95423.53;5073480;28;20052;-44
2020/12/20 00:39:45;;;;;;;63.00;39.50;;;;;;;18.30;29.13;95432.38;5072985;28;20382;-41
2020/12/20 00:42:18;;;;;;;43.65;30.20;;;;;;;17.76;29.70;95423.81;5072379;28;20946;-44
2020/12/20 00:44:46;;;;;;;45.90;30.85;;;;;;;18.04;29.45;95424.38;5104283;28;20370;-44
2020/12/20 00:47:13;;;;;;;36.75;25.90;;;;;;;18.19;29.04;95431.09;5075902;28;20055;-44
2020/12/20 00:49:40;;;;;;;33.35;24.05;;;;;;;17.81;29.45;95425.53;5080449;28;20059;-43
2020/12/20 00:52:08;;;;;;;30.55;23.95;;;;;;;17.96;29.29;95419.06;5076631;28;20045;-44
2020/12/20 00:54:37;;;;;;;30.45;22.60;;;;;;;18.00;29.19;95418.13;5101425;28;20051;-43
2020/12/20 00:57:16;;;;;;;30.35;22.77;;;;;;;18.16;28.92;95421.13;5095423;28;20382;-43
2020/12/20 00:59:43;;;;;;;31.10;22.98;;;;;;;18.26;28.87;95418.19;5058970;28;20358;-43
2020/12/20 01:02:11;;;;;;;32.95;23.50;;;;;;;18.33;28.67;95410.56;5076272;28;20061;-43
2020/12/20 01:04:39;;;;;;;32.58;23.73;;;;;;;17.84;29.35;95420.41;5063090;28;20047;-44
2020/12/20 01:07:06;;;;;;;33.28;24.23;;;;;;;17.61;29.77;95410.94;5085108;28;20051;-44
2020/12/20 01:09:37;;;;;;;31.55;23.25;;;;;;;17.84;29.52;95409.84;5059264;28;20059;-43
2020/12/20 01:12:05;;;;;;;32.58;24.05;;;;;;;18.09;28.91;95404.91;5072556;28;20052;-43
2020/12/20 01:14:55;;;;;;;32.75;24.60;;;;;;;18.11;28.83;95397.44;5083160;28;20052;-44
2020/12/20 01:17:22;;;;;;;36.80;27.08;;;;;;;18.28;28.72;95402.00;5096501;28;20063;-42
2020/12/20 01:19:50;;;;;;;34.40;25.80;;;;;;;18.29;28.74;95404.34;5082658;28;20064;-43
2020/12/20 01:22:25;;;;;;;36.03;28.00;;;;;;;18.32;28.56;95393.13;5058573;28;20041;-44
2020/12/20 01:24:52;;;;;;;36.17;26.08;;;;;;;18.42;28.40;95405.28;5068814;28;20048;-43
2020/12/20 01:27:22;;;;;;;34.10;26.33;;;;;;;18.59;27.92;95401.88;5082962;28;20044;-47
2020/12/20 01:29:49;;;;;;;37.22;27.23;;;;;;;18.03;29.14;95400.88;5058605;28;20043;-43
2020/12/20 01:32:17;;;;;;;38.85;28.05;;;;;;;18.13;28.65;95405.84;5075696;28;20071;-43
2020/12/20 01:34:46;;;;;;;36.53;27.48;;;;;;;18.46;28.36;95400.91;5062531;28;20474;-44
2020/12/20 01:37:13;;;;;;;35.20;26.95;;;;;;;17.97;28.93;95402.09;5077707;28;20047;-45
2020/12/20 01:39:48;;;;;;;33.15;24.98;;;;;;;18.14;28.86;95404.78;5081507;28;20048;-44
2020/12/20 01:42:16;;;;;;;33.60;24.67;;;;;;;18.18;28.78;95397.78;5059752;28;20048;-44
2020/12/20 01:44:45;;;;;;;34.05;25.10;;;;;;;18.28;28.78;95396.72;5058380;28;20485;-44
2020/12/20 01:47:14;;;;;;;32.28;25.58;;;;;;;18.60;28.17;95387.53;5058721;28;20079;-44
2020/12/20 01:49:48;;;;;;;33.00;25.45;;;;;;;18.14;28.71;95396.84;5063639;28;20044;-44
2020/12/20 01:52:18;;;;;;;37.43;26.43;;;;;;;18.12;28.97;95405.09;5058457;28;20052;-43
2020/12/20 01:54:51;;;;;;;38.03;27.35;;;;;;;18.00;29.02;95396.19;5052692;28;20293;-44
2020/12/20 01:57:25;;;;;;;35.53;26.98;;;;;;;17.75;29.42;95387.09;5098536;28;20051;-52
2020/12/20 02:00:09;;;;;;;35.30;25.25;;;;;;;18.29;28.59;95399.06;5098211;28;20054;-43
2020/12/20 02:02:42;;;;;;;32.97;25.80;;;;;;;17.99;29.00;95386.69;5116405;28;20063;-44
2020/12/20 02:05:17;;;;;;;31.00;23.45;;;;;;;18.05;28.92;95394.19;5097981;28;20391;-54
2020/12/20 02:07:50;;;;;;;33.65;23.88;;;;;;;18.19;28.60;95399.31;5097941;28;20460;-44
2020/12/20 02:10:17;;;;;;;31.60;23.73;;;;;;;18.07;28.83;95391.22;5098056;28;20043;-56
2020/12/20 02:12:45;;;;;;;27.58;22.27;;;;;;;18.26;28.60;95399.66;5098021;28;20373;-44
2020/12/20 02:15:23;;;;;;;28.75;21.98;;;;;;;17.72;29.02;95400.94;5098638;28;20043;-44
2020/12/20 02:17:54;;;;;;;31.30;21.63;;;;;;;17.82;29.12;95390.84;5097752;28;20048;-42
2020/12/20 02:20:25;;;;;;;30.08;21.55;;;;;;;17.94;28.77;95387.59;5098047;28;20055;-43
2020/12/20 02:22:59;;;;;;;29.30;22.35;;;;;;;18.21;28.58;95393.72;5097991;28;20473;-43
2020/12/20 02:25:34;;;;;;;28.40;21.58;;;;;;;17.76;29.40;95386.00;5097621;28;20047;-43
2020/12/20 02:28:20;;;;;;;31.58;22.05;;;;;;;17.76;29.30;95392.06;5110882;28;20063;-55
2020/12/20 02:30:52;;;;;;;31.33;22.88;;;;;;;17.75;29.43;95390.53;5077018;28;20052;-46
2020/12/20 02:33:25;;;;;;;31.95;22.70;;;;;;;18.08;28.92;95390.13;5128363;27;20469;-44
2020/12/20 02:35:56;;;;;;;30.95;22.98;;;;;;;18.36;28.40;95386.13;5077650;28;20048;-44
2020/12/20 02:38:23;;;;;;;31.15;23.00;;;;;;;17.92;28.98;95383.69;5077156;28;20047;-44
2020/12/20 02:41:09;;;;;;;30.77;22.42;;;;;;;17.50;29.91;95384.00;5077063;28;20051;-44
2020/12/20 02:43:37;;;;;;;30.50;22.50;;;;;;;17.82;29.20;95374.97;5077166;28;20059;-42
2020/12/20 02:46:10;;;;;;;31.42;22.55;;;;;;;17.93;29.10;95382.63;5077627;28;20060;-44
2020/12/20 02:48:45;;;;;;;29.73;22.52;;;;;;;18.10;28.67;95380.78;5084494;28;20055;-43
2020/12/20 02:51:13;;;;;;;31.98;22.88;;;;;;;17.67;29.20;95391.25;5097115;28;20556;-43
2020/12/20 02:53:41;;;;;;;32.17;23.02;;;;;;;17.98;29.00;95387.78;5097334;28;20043;-44
2020/12/20 02:56:12;;;;;;;30.48;22.92;;;;;;;18.19;28.64;95394.03;5097027;28;20043;-44
2020/12/20 02:58:39;;;;;;;33.78;24.40;;;;;;;17.85;28.91;95384.94;5108079;28;20058;-43
2020/12/20 03:01:13;;;;;;;32.90;24.17;;;;;;;17.95;28.89;95385.72;5094275;28;20063;-43
2020/12/20 03:03:41;;;;;;;31.83;23.02;;;;;;;17.75;29.29;95382.59;5094872;28;20371;-43
2020/12/20 03:06:08;;;;;;;35.03;24.70;;;;;;;18.08;28.79;95385.63;5077042;28;20051;-44
2020/12/20 03:08:37;;;;;;;32.78;24.40;;;;;;;17.81;29.31;95388.50;5076407;28;20048;-43
2020/12/20 03:11:05;;;;;;;32.67;24.80;;;;;;;17.66;29.52;95387.00;5076033;28;20050;-44
2020/12/20 03:13:35;;;;;;;33.25;24.98;;;;;;;17.98;28.97;95382.50;5076765;28;20477;-47
2020/12/20 03:16:02;;;;;;;34.33;24.20;;;;;;;18.03;28.81;95375.19;5102515;28;20055;-44
2020/12/20 03:18:39;;;;;;;34.00;24.33;;;;;;;18.07;28.85;95384.06;5096230;28;20058;-43
2020/12/20 03:21:07;;;;;;;36.90;25.73;;;;;;;18.29;28.58;95383.16;5096771;28;20449;-43
2020/12/20 03:24:09;;;;;;;34.58;24.75;;;;;;;17.67;29.54;95378.03;5107575;28;20716;-50
2020/12/20 03:26:57;;;;;;;35.70;25.77;;;;;;;17.54;29.57;95373.59;5113809;28;20059;-51
2020/12/20 03:29:36;;;;;;;36.28;25.92;;;;;;;18.12;28.55;95378.63;5100509;28;20052;-44
2020/12/20 03:32:33;;;;;;;36.45;26.17;;;;;;;17.98;28.87;95382.50;5006651;28;20057;-44
2020/12/20 03:35:19;;;;;;;35.83;25.55;;;;;;;18.18;28.76;95384.53;5114683;28;20051;-44
2020/12/20 03:38:00;;;;;;;39.00;26.53;;;;;;;18.22;28.82;95388.16;5082748;28;20055;-43
2020/12/20 03:40:30;;;;;;;34.75;25.38;;;;;;;18.30;28.52;95392.66;5090040;28;20048;-45
2020/12/20 03:42:57;;;;;;;33.67;24.92;;;;;;;17.81;29.51;95383.22;5096328;28;20055;-44
2020/12/20 03:45:26;;;;;;;38.28;26.73;;;;;;;18.01;29.08;95387.16;5092868;28;20373;-43
2020/12/20 03:47:54;;;;;;;37.75;27.23;;;;;;;17.85;29.32;95384.94;5092749;28;20052;-44
2020/12/20 03:50:23;;;;;;;37.97;27.20;;;;;;;18.16;28.84;95381.44;5085739;28;20055;-45
2020/12/20 03:52:50;;;;;;;40.05;28.35;;;;;;;18.05;29.11;95374.88;5092941;28;20043;-43
2020/12/20 03:55:27;;;;;;;36.80;27.48;;;;;;;17.68;29.57;95376.16;5088497;28;20050;-47
2020/12/20 03:57:55;;;;;;;40.50;30.02;;;;;;;17.88;29.19;95373.75;5087591;28;20047;-43
2020/12/20 04:00:29;;;;;;;42.60;29.10;;;;;;;18.03;29.18;95377.06;5087305;28;20043;-43
2020/12/20 04:03:11;;;;;;;42.20;28.33;;;;;;;18.21;28.92;95375.97;5089800;28;20058;-42
2020/12/20 04:05:45;;;;;;;43.42;28.10;;;;;;;17.70;30.05;95377.44;5087913;28;20370;-43
2020/12/20 04:08:13;;;;;;;43.25;27.90;;;;;;;17.79;29.63;95385.41;5086724;28;20051;-42
2020/12/20 04:10:52;;;;;;;43.40;27.38;;;;;;;17.96;29.46;95387.31;5083717;28;20051;-54
2020/12/20 04:13:19;;;;;;;43.78;28.55;;;;;;;17.71;29.84;95394.09;5085851;28;20052;-44
2020/12/20 04:15:46;;;;;;;43.65;27.35;;;;;;;18.39;28.77;95385.50;5089981;28;20054;-44
2020/12/20 04:18:13;;;;;;;42.35;29.38;;;;;;;17.81;29.60;95391.16;5089637;28;20039;-42
2020/12/20 04:20:42;;;;;;;44.35;28.48;;;;;;;18.03;29.43;95390.28;5083239;28;20051;-43
2020/12/20 04:23:09;;;;;;;41.85;29.13;;;;;;;18.02;29.51;95383.44;5085605;28;20055;-43
2020/12/20 04:25:44;;;;;;;43.55;28.85;;;;;;;17.95;29.80;95393.66;5091505;28;20493;-42
2020/12/20 04:28:24;;;;;;;43.25;28.67;;;;;;;18.08;29.38;95398.06;5117492;28;20059;-51
2020/12/20 04:30:59;;;;;;;43.50;28.35;;;;;;;18.22;29.30;95382.06;5089614;28;20055;-46
2020/12/20 04:33:31;;;;;;;41.92;27.42;;;;;;;18.20;29.33;95395.59;5090697;28;20476;-49
2020/12/20 04:36:16;;;;;;;40.50;27.88;;;;;;;17.62;30.22;95396.66;5095092;28;20366;-48
2020/12/20 04:38:44;;;;;;;39.70;26.92;;;;;;;17.80;30.10;95381.66;5094716;28;20058;-43
2020/12/20 04:41:11;;;;;;;37.97;25.85;;;;;;;17.63;30.35;95392.91;5093228;28;20043;-42
2020/12/20 04:43:42;;;;;;;40.85;26.42;;;;;;;18.31;29.25;95394.22;5096422;28;20469;-58
2020/12/20 04:46:10;;;;;;;39.35;26.48;;;;;;;18.19;29.28;95391.38;5116562;28;20055;-42
2020/12/20 04:48:51;;;;;;;39.60;25.97;;;;;;;18.27;29.27;95395.16;5123672;27;20048;-42
2020/12/20 04:51:19;;;;;;;41.78;27.08;;;;;;;18.23;29.21;95384.41;5076489;28;20055;-43
2020/12/20 04:53:48;;;;;;;40.78;27.98;;;;;;;17.72;30.02;95385.06;5082188;28;20039;-42
2020/12/20 04:56:23;;;;;;;41.60;27.27;;;;;;;17.87;29.75;95382.75;5096774;28;20048;-44
2020/12/20 04:58:56;;;;;;;36.45;25.67;;;;;;;18.14;29.47;95386.25;5088262;28;20058;-43
2020/12/20 05:01:27;;;;;;;40.17;27.40;;;;;;;18.31;29.25;95378.34;5079122;28;20063;-44
2020/12/20 05:03:57;;;;;;;40.65;27.02;;;;;;;18.24;29.38;95393.91;5093165;28;20066;-42
2020/12/20 05:06:28;;;;;;;44.58;28.05;;;;;;;17.85;29.74;95389.44;5093666;28;20059;-42
2020/12/20 05:09:07;;;;;;;44.88;28.02;;;;;;;17.75;30.13;95389.75;5089538;28;20051;-52
2020/12/20 05:11:44;;;;;;;44.05;29.33;;;;;;;17.77;30.01;95392.84;5088453;28;20712;-44
2020/12/20 05:14:17;;;;;;;42.60;28.08;;;;;;;17.93;29.87;95395.84;5087717;28;20043;-43
2020/12/20 05:17:00;;;;;;;47.30;29.75;;;;;;;17.68;30.24;95395.44;5096092;28;20048;-43
2020/12/20 05:19:33;;;;;;;43.80;29.55;;;;;;;17.68;30.28;95392.81;5081843;28;20468;-54
2020/12/20 05:22:22;;;;;;;45.90;30.38;;;;;;;17.88;29.91;95394.91;5089259;28;20050;-43
2020/12/20 05:24:55;;;;;;;44.33;29.42;;;;;;;17.97;29.85;95402.09;5086916;28;20434;-48
2020/12/20 05:27:31;;;;;;;44.38;29.45;;;;;;;17.74;30.12;95399.53;5092568;28;20055;-44
2020/12/20 05:30:13;;;;;;;43.85;29.60;;;;;;;18.10;29.49;95398.53;5092835;28;20055;-46
2020/12/20 05:33:01;;;;;;;48.20;30.80;;;;;;;18.20;29.22;95408.81;5111847;28;20059;-43
2020/12/20 05:35:30;;;;;;;48.95;30.33;;;;;;;17.87;29.76;95409.22;5091656;28;20043;-42
2020/12/20 05:37:57;;;;;;;44.88;29.67;;;;;;;17.92;29.90;95410.16;5085273;28;20048;-48
2020/12/20 05:40:36;;;;;;;43.42;28.58;;;;;;;18.21;29.26;95412.25;5092643;28;20059;-43
2020/12/20 05:43:08;;;;;;;47.00;29.52;;;;;;;18.45;28.93;95418.66;5093785;28;20048;-50
2020/12/20 05:45:41;;;;;;;40.92;27.48;;;;;;;18.34;29.08;95411.34;5094616;28;20040;-43
2020/12/20 05:48:18;;;;;;;45.67;28.48;;;;;;;17.88;29.75;95426.66;5077452;28;20051;-46
2020/12/20 05:51:06;;;;;;;44.20;28.27;;;;;;;18.12;29.45;95420.19;5090257;28;20051;-45
2020/12/20 05:53:40;;;;;;;41.83;27.70;;;;;;;18.11;29.55;95419.41;5115168;28;20358;-43
2020/12/20 05:56:10;;;;;;;43.78;27.85;;;;;;;18.14;29.35;95418.78;5114200;28;20046;-43
2020/12/20 05:58:37;;;;;;;44.45;28.98;;;;;;;18.22;29.09;95430.50;5110826;28;20044;-42
2020/12/20 06:01:04;;;;;;;45.38;28.77;;;;;;;17.86;29.81;95428.81;5115432;28;20066;-43
2020/12/20 06:03:32;;;;;;;39.88;27.08;;;;;;;17.97;29.83;95423.25;5097330;28;20067;-44
2020/12/20 06:06:05;;;;;;;41.92;27.05;;;;;;;18.10;29.45;95423.13;5116677;28;20047;-44
2020/12/20 06:08:33;;;;;;;38.42;25.33;;;;;;;17.79;30.15;95430.34;5098804;28;20043;-53
2020/12/20 06:11:02;;;;;;;38.70;25.10;;;;;;;17.99;29.92;95431.69;5097326;28;20048;-44
2020/12/20 06:13:31;;;;;;;39.53;26.88;;;;;;;17.68;30.44;95432.47;5098436;28;20050;-41
2020/12/20 06:15:58;;;;;;;41.47;27.35;;;;;;;17.91;29.88;95427.91;5098337;28;20051;-42
2020/12/20 06:18:34;;;;;;;35.35;25.23;;;;;;;17.98;29.70;95430.91;5105819;28;20043;-42
2020/12/20 06:21:04;;;;;;;43.35;29.00;;;;;;;18.36;29.22;95428.47;5077502;28;20052;-44
2020/12/20 06:23:36;;;;;;;47.50;31.65;;;;;;;17.87;29.97;95430.38;5075336;28;20438;-42
2020/12/20 06:26:05;;;;;;;48.22;32.13;;;;;;;17.85;30.04;95437.06;5112020;28;20047;-44
2020/12/20 06:28:33;;;;;;;45.95;29.85;;;;;;;18.10;29.72;95439.00;5115619;28;20054;-42
2020/12/20 06:31:01;;;;;;;45.30;29.27;;;;;;;18.35;29.31;95439.38;5115512;28;20055;-42
2020/12/20 06:33:43;;;;;;;45.22;31.25;;;;;;;18.40;29.23;95450.59;5115742;28;20074;-44
2020/12/20 06:36:13;;;;;;;51.05;32.45;;;;;;;17.91;29.92;95450.91;5103957;28;20055;-49
2020/12/20 06:38:40;;;;;;;49.08;33.58;;;;;;;17.84;30.06;95449.50;5112471;28;20397;-44
2020/12/20 06:41:07;;;;;;;49.65;34.05;;;;;;;18.44;29.19;95446.22;5114146;28;20047;-43
2020/12/20 06:43:36;;;;;;;55.38;34.67;;;;;;;18.61;28.89;95448.13;5114166;28;20062;-43
2020/12/20 06:46:09;;;;;;;51.50;33.92;;;;;;;18.07;29.54;95455.50;5108330;28;20047;-46
2020/12/20 06:48:38;;;;;;;51.08;33.95;;;;;;;18.23;29.68;95453.22;5113935;28;20047;-52
2020/12/20 06:51:09;;;;;;;45.55;30.83;;;;;;;18.41;29.23;95454.78;5114486;28;20111;-44
2020/12/20 06:53:56;;;;;;;46.72;31.08;;;;;;;18.69;28.50;95459.84;5085618;28;20048;-43
2020/12/20 06:56:26;;;;;;;45.60;30.02;;;;;;;18.67;28.81;95456.72;5111876;28;20043;-47
2020/12/20 06:58:53;;;;;;;47.28;31.17;;;;;;;18.58;29.01;95459.34;5114149;28;20413;-42
2020/12/20 07:01:37;;;;;;;42.17;28.42;;;;;;;18.05;29.94;95462.97;5114379;28;20352;-48
2020/12/20 07:04:18;;;;;;;46.28;29.73;;;;;;;18.18;29.69;95469.22;5113881;28;20047;-44
2020/12/20 07:07:08;;;;;;;40.17;27.35;;;;;;;17.91;30.06;95464.94;5097934;28;20047;-44
2020/12/20 07:09:37;;;;;;;41.42;27.27;;;;;;;18.11;29.53;95467.03;5098313;28;20055;-42
2020/12/20 07:12:08;;;;;;;50.28;32.33;;;;;;;18.29;29.32;95459.94;5094673;28;20057;-44
2020/12/20 07:14:42;;;;;;;46.88;28.67;;;;;;;18.24;29.42;95460.06;5077157;28;20040;-44
2020/12/20 07:17:26;;;;;;;44.17;29.27;;;;;;;18.51;29.12;95468.84;5094823;28;20054;-44
2020/12/20 07:20:10;;;;;;;50.72;32.83;;;;;;;17.38;30.96;95464.94;5091419;28;20476;-44
2020/12/20 07:22:42;;;;;;;52.20;32.90;;;;;;;17.58;30.53;95475.03;5094215;28;20040;-47
2020/12/20 07:25:09;;;;;;;48.17;32.30;;;;;;;17.42;30.75;95471.19;5080759;28;20043;-43
2020/12/20 07:27:36;;;;;;;46.92;30.33;;;;;;;16.92;31.63;95458.13;5078460;28;20040;-47
2020/12/20 07:30:05;;;;;;;48.25;30.83;;;;;;;17.08;31.60;95467.25;5081790;28;20048;-45
2020/12/20 07:32:32;;;;;;;47.63;30.25;;;;;;;16.82;31.93;95467.03;5073721;28;20056;-52
2020/12/20 07:34:59;;;;;;;51.97;32.67;;;;;;;16.84;32.06;95459.59;5076105;28;20055;-45
2020/12/20 07:37:26;;;;;;;43.63;27.75;;;;;;;16.32;32.93;95463.59;5075266;28;20044;-44
2020/12/20 07:40:06;;;;;;;49.58;31.67;;;;;;;16.33;32.78;95470.44;5090945;28;20051;-54
2020/12/20 07:42:33;;;;;;;47.90;31.23;;;;;;;16.09;33.64;95452.19;5086320;28;20438;-41
2020/12/20 07:45:04;;;;;;;50.28;32.90;;;;;;;16.19;33.62;95461.78;5094217;28;20056;-41
2020/12/20 07:47:33;;;;;;;53.88;33.40;;;;;;;15.79;33.86;95464.09;5091401;28;20051;-41
2020/12/20 07:50:01;;;;;;;50.28;32.55;;;;;;;15.62;34.44;95463.91;5086639;28;20047;-42
2020/12/20 07:52:29;;;;;;;51.22;33.10;;;;;;;15.92;33.98;95463.34;5095728;28;20050;-42
2020/12/20 07:54:58;;;;;;;54.80;32.80;;;;;;;15.72;34.08;95459.22;5094117;28;20378;-42
2020/12/20 07:57:25;;;;;;;47.83;30.45;;;;;;;15.97;33.86;95465.09;5093592;28;20051;-41
2020/12/20 08:00:04;;;;;;;52.45;32.28;;;;;;;15.31;34.88;95459.09;5093570;28;20044;-56
2020/12/20 08:02:39;;;;;;;48.25;31.10;;;;;;;15.65;34.36;95458.06;5093964;28;20056;-45
2020/12/20 08:05:11;;;;;;;51.08;31.27;;;;;;;16.50;32.80;95456.66;5113944;28;20048;-43
2020/12/20 08:07:38;;;;;;;48.10;30.63;;;;;;;17.42;31.08;95465.91;5103656;28;20056;-58
2020/12/20 08:10:06;;;;;;;57.83;31.20;;;;;;;18.44;29.11;95459.47;5077394;28;20079;-49
2020/12/20 08:12:38;;;;;;;43.33;29.25;;;;;;;19.35;27.70;95455.16;5073764;28;20044;-49
2020/12/20 08:15:07;;;;;;;39.80;28.42;;;;;;;19.42;27.07;95460.75;5073860;28;20044;-47
2020/12/20 08:17:36;;;;;;;36.42;26.42;;;;;;;19.66;27.02;95465.56;5073867;28;20052;-46
2020/12/20 08:20:04;;;;;;;38.53;27.55;;;;;;;20.11;26.59;95465.06;5091065;28;20066;-47
2020/12/20 08:22:32;;;;;;;35.17;26.05;;;;;;;20.08;26.46;95477.13;5076430;28;20052;-46
2020/12/20 08:25:07;;;;;;;35.45;26.80;;;;;;;20.39;25.89;95471.50;5096042;28;20058;-43
2020/12/20 08:27:36;;;;;;;38.30;26.35;;;;;;;20.77;25.30;95462.66;5105175;28;20052;-45
2020/12/20 08:30:08;;;;;;;35.83;27.50;;;;;;;20.69;25.42;95458.97;5101252;28;20052;-43
2020/12/20 08:32:44;;;;;;;36.45;26.55;;;;;;;20.67;25.62;95463.84;5073424;28;20052;-44
2020/12/20 08:35:12;;;;;;;35.90;26.58;;;;;;;20.94;25.27;95452.69;5073441;28;20051;-46
2020/12/20 08:37:39;;;;;;;34.25;26.80;;;;;;;21.37;24.55;95445.47;5073350;28;20386;-48
2020/12/20 08:40:11;;;;;;;36.30;28.10;;;;;;;21.27;24.29;95446.63;5090323;28;20048;-47
2020/12/20 08:42:42;;;;;;;35.40;27.73;;;;;;;21.06;24.52;95448.50;5093695;28;20074;-47
2020/12/20 08:45:14;;;;;;;44.20;32.55;;;;;;;21.04;24.84;95456.03;5093518;28;20052;-51
2020/12/20 08:47:43;;;;;;;42.20;31.55;;;;;;;21.20;24.76;95457.00;5093635;28;20406;-46
2020/12/20 08:50:14;;;;;;;40.33;30.77;;;;;;;21.16;24.54;95456.88;5092112;28;20059;-45
2020/12/20 08:52:41;;;;;;;47.47;34.70;;;;;;;20.85;24.99;95457.31;5079799;28;20045;-49
2020/12/20 08:55:09;;;;;;;45.75;34.80;;;;;;;21.32;24.54;95464.28;5094486;28;20354;-52
2020/12/20 08:57:36;;;;;;;44.67;35.25;;;;;;;21.17;24.59;95465.63;5113753;28;20058;-44
2020/12/20 09:00:22;;;;;;;45.83;34.92;;;;;;;20.30;25.63;95455.63;5109292;28;20098;-45
2020/12/20 09:02:57;;;;;;;55.00;31.20;;;;;;;20.31;25.71;95443.88;5080950;28;20056;-46
2020/12/20 09:05:29;;;;;;;47.13;30.20;;;;;;;19.57;26.91;95457.63;5093184;28;20044;-48
2020/12/20 09:07:57;;;;;;;39.17;28.70;;;;;;;19.97;26.39;95447.47;5093210;28;20052;-54
2020/12/20 09:10:25;;;;;;;36.35;27.33;;;;;;;20.51;25.68;95447.69;5095882;28;20055;-44
2020/12/20 09:12:57;;;;;;;37.92;29.08;;;;;;;20.40;25.53;95451.03;5096956;28;20055;-43
2020/12/20 09:15:30;;;;;;;36.47;28.08;;;;;;;20.79;25.17;95447.16;5095994;28;20047;-44
2020/12/20 09:18:13;;;;;;;37.60;26.52;;;;;;;20.32;25.88;95453.41;5096837;28;20048;-47
2020/12/20 09:20:42;;;;;;;35.60;26.50;;;;;;;19.94;26.47;95444.69;5096802;28;20048;-45
2020/12/20 09:23:25;;;;;;;36.95;26.98;;;;;;;19.92;26.38;95447.66;5096787;28;20044;-47
2020/12/20 09:26:03;;;;;;;36.85;26.00;;;;;;;19.85;26.58;95446.63;5112686;28;20044;-49
2020/12/20 09:28:32;;;;;;;33.55;24.30;;;;;;;19.77;26.63;95445.53;5116644;28;20382;-45
2020/12/20 09:31:12;;;;;;;33.45;25.23;;;;;;;20.01;26.17;95439.66;5116638;28;20055;-49
2020/12/20 09:33:49;;;;;;;33.55;25.10;;;;;;;19.67;26.58;95436.06;5116893;28;20055;-41
2020/12/20 09:36:24;;;;;;;34.42;25.38;;;;;;;19.73;26.45;95441.19;5116888;28;20051;-42
2020/12/20 09:39:01;;;;;;;35.97;26.30;;;;;;;19.98;26.17;95413.75;5112604;28;20047;-44
2020/12/20 09:41:30;;;;;;;35.38;25.00;;;;;;;20.16;26.08;95436.47;5116698;28;20044;-43
2020/12/20 09:43:59;;;;;;;33.95;24.35;;;;;;;20.06;26.17;95430.75;5116929;28;20051;-43
2020/12/20 09:46:33;;;;;;;34.85;25.35;;;;;;;20.35;26.09;95429.97;5116555;28;20067;-42
2020/12/20 09:49:01;;;;;;;33.17;23.60;;;;;;;19.83;26.24;95431.00;5116268;28;20347;-44
2020/12/20 09:51:30;;;;;;;35.97;24.85;;;;;;;20.03;27.11;95429.50;5116166;28;20047;-52
2020/12/20 09:53:57;;;;;;;34.08;25.88;;;;;;;19.94;26.43;95428.78;5115613;28;20043;-44
2020/12/20 09:56:24;;;;;;;33.88;25.40;;;;;;;20.20;25.92;95432.06;5116541;28;20043;-43
2020/12/20 09:58:51;;;;;;;35.35;24.75;;;;;;;20.39;25.27;95423.69;5112032;28;20052;-45
2020/12/20 10:01:32;;;;;;;31.88;23.75;;;;;;;19.88;26.12;95424.75;5095836;28;20059;-43
2020/12/20 10:03:59;;;;;;;35.40;24.40;;;;;;;20.01;26.02;95423.72;5096127;28;20051;-44
2020/12/20 10:06:32;;;;;;;33.80;23.05;;;;;;;20.27;25.49;95421.72;5095087;28;20066;-42
2020/12/20 10:09:00;;;;;;;31.05;23.73;;;;;;;20.66;25.14;95425.09;5095678;28;20137;-43
2020/12/20 10:11:27;;;;;;;33.25;24.35;;;;;;;20.55;25.26;95423.91;5095087;28;20052;-41
2020/12/20 10:13:55;;;;;;;31.58;23.38;;;;;;;20.79;25.01;95413.41;5094910;28;20055;-47
2020/12/20 10:16:24;;;;;;;33.00;23.95;;;;;;;20.35;25.30;95416.69;5084688;28;20324;-40
2020/12/20 10:18:54;;;;;;;31.92;23.60;;;;;;;20.35;25.40;95416.69;5078778;28;20051;-42
2020/12/20 10:21:24;;;;;;;33.20;23.05;;;;;;;20.01;25.85;95413.13;5095618;28;20052;-40
2020/12/20 10:23:51;;;;;;;31.75;22.90;;;;;;;20.43;25.30;95403.38;5096636;28;20354;-44
2020/12/20 10:26:18;;;;;;;32.17;22.45;;;;;;;20.41;25.46;95410.88;5104434;28;20047;-42
2020/12/20 10:28:45;;;;;;;30.95;22.63;;;;;;;20.39;25.23;95399.00;5115113;28;20448;-41
2020/12/20 10:31:18;;;;;;;32.47;23.58;;;;;;;20.58;25.46;95404.69;5115658;28;20086;-40
2020/12/20 10:33:46;;;;;;;34.70;23.05;;;;;;;20.46;25.23;95397.41;5115237;28;20710;-40
2020/12/20 10:36:13;;;;;;;32.83;22.35;;;;;;;20.14;25.45;95401.50;5115314;28;20048;-41
2020/12/20 10:38:40;;;;;;;27.33;21.15;;;;;;;20.98;24.41;95406.84;5114935;28;20047;-42
2020/12/20 10:41:11;;;;;;;28.08;21.65;;;;;;;20.95;24.47;95397.66;5115446;28;20051;-46
2020/12/20 10:43:38;;;;;;;29.83;22.52;;;;;;;21.06;24.42;95404.09;5114864;28;20047;-46
2020/12/20 10:46:05;;;;;;;29.17;21.63;;;;;;;20.65;24.75;95410.25;5115119;28;20374;-46
2020/12/20 10:48:32;;;;;;;119.53;66.07;;;;;;;20.63;25.03;95401.84;5115242;28;20445;-45
2020/12/20 10:50:59;;;;;;;177.63;115.15;;;;;;;20.66;25.12;95398.53;5114645;28;20058;-46
2020/12/20 10:53:26;;;;;;;40.17;28.02;;;;;;;20.23;25.23;95398.78;5115040;28;20055;-42
2020/12/20 10:55:53;;;;;;;28.70;21.38;;;;;;;20.19;25.35;95398.66;5111381;28;20047;-44
2020/12/20 10:58:20;;;;;;;28.55;20.52;;;;;;;20.15;25.13;95392.44;5114833;28;20047;-44
2020/12/20 11:00:47;;;;;;;28.27;21.40;;;;;;;20.54;24.74;95393.91;5115031;28;20055;-42
2020/12/20 11:03:14;;;;;;;26.13;19.42;;;;;;;20.15;25.15;95383.69;5115161;28;20474;-45
2020/12/20 11:05:41;;;;;;;27.92;20.48;;;;;;;19.95;25.41;95393.16;5114075;28;20055;-45
2020/12/20 11:08:08;;;;;;;26.48;20.40;;;;;;;20.37;24.99;95387.94;5113465;28;20048;-44
2020/12/20 11:10:35;;;;;;;28.13;21.13;;;;;;;20.37;25.08;95388.72;5114918;28;20071;-43
2020/12/20 11:13:02;;;;;;;26.85;19.77;;;;;;;19.96;25.49;95384.13;5115277;28;20047;-50
2020/12/20 11:15:29;;;;;;;24.27;19.33;;;;;;;19.59;25.71;95389.13;5108044;28;20047;-45
2020/12/20 11:17:59;;;;;;;26.02;20.23;;;;;;;20.52;24.64;95382.06;5113592;28;20446;-46
2020/12/20 11:20:27;;;;;;;26.35;21.83;;;;;;;21.58;23.38;95394.84;5112856;28;20051;-48
2020/12/20 11:22:54;;;;;;;33.05;23.58;;;;;;;20.67;24.22;95397.41;5093705;28;20054;-43
2020/12/20 11:25:21;;;;;;;25.48;20.33;;;;;;;19.78;25.88;95388.75;5094364;28;20047;-48
2020/12/20 11:27:48;;;;;;;27.88;19.80;;;;;;;19.87;25.30;95397.44;5094412;28;20055;-44
2020/12/20 11:30:16;;;;;;;25.98;19.65;;;;;;;19.69;25.69;95396.72;5083223;28;20055;-45
2020/12/20 11:32:43;;;;;;;25.30;19.95;;;;;;;19.46;26.11;95392.72;5082739;28;20048;-47
2020/12/20 11:35:10;;;;;;;23.92;18.67;;;;;;;19.18;26.58;95397.63;5114410;28;20050;-43